sensor_id;sensor_type;location;lat;lon;timestamp;P1;durP1;ratioP1;P2;durP2;ratioP2
24163;SDS011;12319;49.204;8.116;2023-07-31T00:00:32;5.57;;;3.43;;
24163;SDS011;12319;49.204;8.116;2023-07-31T00:02:58;5.57;;;3.28;;
24163;SDS011;12319;49.204;8.116;2023-07-31T00:05:24;5.60;;;3.70;;
24163;SDS011;12319;49.204;8.116;2023-07-31T00:07:49;5.10;;;3.77;;
24163;SDS011;12319;49.204;8.116;2023-07-31T00:10:15;5.70;;;3.85;;
24163;SDS011;12319;49.204;8.116;2023-07-31T00:12:41;7.27;;;3.67;;
24163;SDS011;12319;49.204;8.116;2023-07-31T00:15:08;5.22;;;3.53;;
24163;SDS011;12319;49.204;8.116;2023-07-31T00:17:35;4.90;;;3.63;;
24163;SDS011;12319;49.204;8.116;2023-07-31T00:20:01;5.93;;;3.60;;
24163;SDS011;12319;49.204;8.116;2023-07-31T00:22:27;5.63;;;4.00;;
24163;SDS011;12319;49.204;8.116;2023-07-31T00:24:53;4.80;;;3.50;;
24163;SDS011;12319;49.204;8.116;2023-07-31T00:27:18;4.80;;;3.40;;
24163;SDS011;12319;49.204;8.116;2023-07-31T00:29:44;5.37;;;3.37;;
24163;SDS011;12319;49.204;8.116;2023-07-31T00:32:09;5.57;;;3.30;;
24163;SDS011;12319;49.204;8.116;2023-07-31T00:34:35;5.22;;;3.63;;
24163;SDS011;12319;49.204;8.116;2023-07-31T00:37:00;5.13;;;3.50;;
24163;SDS011;12319;49.204;8.116;2023-07-31T00:39:26;5.43;;;3.70;;
24163;SDS011;12319;49.204;8.116;2023-07-31T00:41:51;5.33;;;3.10;;
24163;SDS011;12319;49.204;8.116;2023-07-31T00:44:17;5.47;;;3.60;;
24163;SDS011;12319;49.204;8.116;2023-07-31T00:46:42;5.75;;;3.78;;
24163;SDS011;12319;49.204;8.116;2023-07-31T00:49:09;4.72;;;3.33;;
24163;SDS011;12319;49.204;8.116;2023-07-31T00:51:35;5.90;;;3.60;;
24163;SDS011;12319;49.204;8.116;2023-07-31T00:54:01;5.67;;;3.50;;
24163;SDS011;12319;49.204;8.116;2023-07-31T00:56:27;5.32;;;3.80;;
24163;SDS011;12319;49.204;8.116;2023-07-31T00:58:55;4.85;;;3.80;;
24163;SDS011;12319;49.204;8.116;2023-07-31T01:01:20;5.38;;;3.50;;
24163;SDS011;12319;49.204;8.116;2023-07-31T01:03:46;4.70;;;3.55;;
24163;SDS011;12319;49.204;8.116;2023-07-31T01:06:23;4.30;;;3.20;;
24163;SDS011;12319;49.204;8.116;2023-07-31T01:08:58;4.32;;;3.22;;
24163;SDS011;12319;49.204;8.116;2023-07-31T01:11:33;4.50;;;3.15;;
24163;SDS011;12319;49.204;8.116;2023-07-31T01:14:03;4.90;;;3.65;;
24163;SDS011;12319;49.204;8.116;2023-07-31T01:16:29;5.45;;;3.60;;
24163;SDS011;12319;49.204;8.116;2023-07-31T01:18:55;5.30;;;3.60;;
24163;SDS011;12319;49.204;8.116;2023-07-31T01:21:37;5.57;;;3.37;;
24163;SDS011;12319;49.204;8.116;2023-07-31T01:26:47;5.97;;;3.47;;
24163;SDS011;12319;49.204;8.116;2023-07-31T01:29:23;5.32;;;3.30;;
24163;SDS011;12319;49.204;8.116;2023-07-31T01:32:01;4.90;;;3.40;;
24163;SDS011;12319;49.204;8.116;2023-07-31T01:34:28;4.67;;;3.10;;
24163;SDS011;12319;49.204;8.116;2023-07-31T01:36:55;4.75;;;3.50;;
24163;SDS011;12319;49.204;8.116;2023-07-31T01:39:21;5.00;;;3.45;;
24163;SDS011;12319;49.204;8.116;2023-07-31T01:41:47;8.60;;;3.70;;
24163;SDS011;12319;49.204;8.116;2023-07-31T01:44:12;5.13;;;4.00;;
24163;SDS011;12319;49.204;8.116;2023-07-31T01:46:38;5.13;;;3.53;;
24163;SDS011;12319;49.204;8.116;2023-07-31T01:49:05;6.03;;;3.70;;
24163;SDS011;12319;49.204;8.116;2023-07-31T01:51:31;5.20;;;3.90;;
24163;SDS011;12319;49.204;8.116;2023-07-31T01:53:59;6.78;;;3.65;;
24163;SDS011;12319;49.204;8.116;2023-07-31T01:56:25;4.93;;;3.78;;
24163;SDS011;12319;49.204;8.116;2023-07-31T01:58:50;5.80;;;3.90;;
24163;SDS011;12319;49.204;8.116;2023-07-31T02:01:16;4.97;;;3.60;;
24163;SDS011;12319;49.204;8.116;2023-07-31T02:03:41;4.87;;;3.60;;
24163;SDS011;12319;49.204;8.116;2023-07-31T02:06:07;5.00;;;3.53;;
24163;SDS011;12319;49.204;8.116;2023-07-31T02:08:32;5.37;;;3.40;;
24163;SDS011;12319;49.204;8.116;2023-07-31T02:10:58;4.80;;;3.40;;
24163;SDS011;12319;49.204;8.116;2023-07-31T02:13:23;5.18;;;3.70;;
24163;SDS011;12319;49.204;8.116;2023-07-31T02:15:49;5.43;;;3.37;;
24163;SDS011;12319;49.204;8.116;2023-07-31T02:18:15;4.78;;;3.40;;
24163;SDS011;12319;49.204;8.116;2023-07-31T02:20:41;4.40;;;3.13;;
24163;SDS011;12319;49.204;8.116;2023-07-31T02:23:06;5.28;;;3.65;;
24163;SDS011;12319;49.204;8.116;2023-07-31T02:25:32;4.60;;;3.33;;
24163;SDS011;12319;49.204;8.116;2023-07-31T02:27:58;4.87;;;3.37;;
24163;SDS011;12319;49.204;8.116;2023-07-31T02:30:23;5.45;;;3.40;;
24163;SDS011;12319;49.204;8.116;2023-07-31T02:32:49;5.80;;;3.43;;
24163;SDS011;12319;49.204;8.116;2023-07-31T02:35:14;5.30;;;3.80;;
24163;SDS011;12319;49.204;8.116;2023-07-31T02:37:40;5.57;;;3.67;;
24163;SDS011;12319;49.204;8.116;2023-07-31T02:40:07;5.35;;;3.88;;
24163;SDS011;12319;49.204;8.116;2023-07-31T02:42:32;5.50;;;3.60;;
24163;SDS011;12319;49.204;8.116;2023-07-31T02:44:58;4.22;;;2.80;;
24163;SDS011;12319;49.204;8.116;2023-07-31T02:47:23;5.60;;;3.40;;
24163;SDS011;12319;49.204;8.116;2023-07-31T02:49:49;4.70;;;3.50;;
24163;SDS011;12319;49.204;8.116;2023-07-31T02:52:14;6.80;;;3.15;;
24163;SDS011;12319;49.204;8.116;2023-07-31T02:54:40;5.27;;;3.20;;
24163;SDS011;12319;49.204;8.116;2023-07-31T02:57:05;5.60;;;3.47;;
24163;SDS011;12319;49.204;8.116;2023-07-31T02:59:31;5.20;;;3.63;;
24163;SDS011;12319;49.204;8.116;2023-07-31T03:01:56;5.00;;;3.90;;
24163;SDS011;12319;49.204;8.116;2023-07-31T03:04:22;5.10;;;3.65;;
24163;SDS011;12319;49.204;8.116;2023-07-31T03:06:48;4.70;;;3.30;;
24163;SDS011;12319;49.204;8.116;2023-07-31T03:09:13;4.87;;;3.40;;
24163;SDS011;12319;49.204;8.116;2023-07-31T03:11:39;4.63;;;3.35;;
24163;SDS011;12319;49.204;8.116;2023-07-31T03:14:04;4.90;;;3.30;;
24163;SDS011;12319;49.204;8.116;2023-07-31T03:16:30;5.53;;;3.57;;
24163;SDS011;12319;49.204;8.116;2023-07-31T03:18:55;6.30;;;4.07;;
24163;SDS011;12319;49.204;8.116;2023-07-31T03:21:21;5.78;;;3.47;;
24163;SDS011;12319;49.204;8.116;2023-07-31T03:23:46;5.07;;;3.40;;
24163;SDS011;12319;49.204;8.116;2023-07-31T03:26:12;5.13;;;3.37;;
24163;SDS011;12319;49.204;8.116;2023-07-31T03:28:38;5.15;;;3.80;;
24163;SDS011;12319;49.204;8.116;2023-07-31T03:31:04;4.88;;;3.60;;
24163;SDS011;12319;49.204;8.116;2023-07-31T03:33:29;6.60;;;3.60;;
24163;SDS011;12319;49.204;8.116;2023-07-31T03:35:55;5.33;;;3.90;;
24163;SDS011;12319;49.204;8.116;2023-07-31T03:38:20;5.37;;;4.07;;
24163;SDS011;12319;49.204;8.116;2023-07-31T03:40:46;5.00;;;3.78;;
24163;SDS011;12319;49.204;8.116;2023-07-31T03:43:12;5.00;;;3.70;;
24163;SDS011;12319;49.204;8.116;2023-07-31T03:45:37;7.15;;;3.67;;
24163;SDS011;12319;49.204;8.116;2023-07-31T03:48:03;5.20;;;3.53;;
24163;SDS011;12319;49.204;8.116;2023-07-31T03:50:29;5.07;;;3.60;;
24163;SDS011;12319;49.204;8.116;2023-07-31T03:52:54;4.50;;;3.30;;
24163;SDS011;12319;49.204;8.116;2023-07-31T03:55:20;4.93;;;3.60;;
24163;SDS011;12319;49.204;8.116;2023-07-31T03:57:46;5.28;;;3.50;;
24163;SDS011;12319;49.204;8.116;2023-07-31T04:00:12;5.45;;;3.65;;
24163;SDS011;12319;49.204;8.116;2023-07-31T04:02:38;4.60;;;3.40;;
24163;SDS011;12319;49.204;8.116;2023-07-31T04:05:03;4.97;;;3.80;;
24163;SDS011;12319;49.204;8.116;2023-07-31T04:07:29;5.67;;;3.93;;
24163;SDS011;12319;49.204;8.116;2023-07-31T04:09:55;4.93;;;3.67;;
24163;SDS011;12319;49.204;8.116;2023-07-31T04:12:21;5.10;;;4.10;;
24163;SDS011;12319;49.204;8.116;2023-07-31T04:14:47;5.03;;;3.92;;
24163;SDS011;12319;49.204;8.116;2023-07-31T04:17:12;5.20;;;3.57;;
24163;SDS011;12319;49.204;8.116;2023-07-31T04:19:38;5.20;;;3.60;;
24163;SDS011;12319;49.204;8.116;2023-07-31T04:22:03;5.67;;;3.93;;
24163;SDS011;12319;49.204;8.116;2023-07-31T04:24:29;5.22;;;4.22;;
24163;SDS011;12319;49.204;8.116;2023-07-31T04:26:54;5.33;;;4.03;;
24163;SDS011;12319;49.204;8.116;2023-07-31T04:29:20;5.47;;;4.25;;
24163;SDS011;12319;49.204;8.116;2023-07-31T04:31:46;5.63;;;4.40;;
24163;SDS011;12319;49.204;8.116;2023-07-31T04:34:12;5.40;;;4.10;;
24163;SDS011;12319;49.204;8.116;2023-07-31T04:36:38;5.17;;;4.10;;
24163;SDS011;12319;49.204;8.116;2023-07-31T04:39:03;7.00;;;4.45;;
24163;SDS011;12319;49.204;8.116;2023-07-31T04:41:29;5.47;;;4.17;;
24163;SDS011;12319;49.204;8.116;2023-07-31T04:43:54;6.03;;;4.40;;
24163;SDS011;12319;49.204;8.116;2023-07-31T04:46:20;5.85;;;4.18;;
24163;SDS011;12319;49.204;8.116;2023-07-31T04:48:45;5.87;;;4.23;;
24163;SDS011;12319;49.204;8.116;2023-07-31T04:51:11;7.10;;;4.00;;
24163;SDS011;12319;49.204;8.116;2023-07-31T04:53:36;5.20;;;3.90;;
24163;SDS011;12319;49.204;8.116;2023-07-31T04:56:02;5.00;;;3.78;;
24163;SDS011;12319;49.204;8.116;2023-07-31T04:58:27;5.37;;;4.03;;
24163;SDS011;12319;49.204;8.116;2023-07-31T05:00:53;5.07;;;4.00;;
24163;SDS011;12319;49.204;8.116;2023-07-31T05:03:19;5.80;;;4.27;;
24163;SDS011;12319;49.204;8.116;2023-07-31T05:05:44;5.07;;;4.00;;
24163;SDS011;12319;49.204;8.116;2023-07-31T05:08:10;5.63;;;4.20;;
24163;SDS011;12319;49.204;8.116;2023-07-31T05:10:35;6.73;;;4.23;;
24163;SDS011;12319;49.204;8.116;2023-07-31T05:13:01;5.77;;;4.20;;
24163;SDS011;12319;49.204;8.116;2023-07-31T05:15:26;5.35;;;3.90;;
24163;SDS011;12319;49.204;8.116;2023-07-31T05:17:52;5.37;;;4.20;;
24163;SDS011;12319;49.204;8.116;2023-07-31T05:20:17;4.80;;;3.63;;
24163;SDS011;12319;49.204;8.116;2023-07-31T05:22:43;5.38;;;3.97;;
24163;SDS011;12319;49.204;8.116;2023-07-31T05:25:08;4.83;;;3.93;;
24163;SDS011;12319;49.204;8.116;2023-07-31T05:27:34;5.43;;;3.83;;
24163;SDS011;12319;49.204;8.116;2023-07-31T05:30:00;5.75;;;4.03;;
24163;SDS011;12319;49.204;8.116;2023-07-31T05:32:25;5.07;;;4.27;;
24163;SDS011;12319;49.204;8.116;2023-07-31T05:34:51;5.40;;;4.45;;
24163;SDS011;12319;49.204;8.116;2023-07-31T05:37:18;5.57;;;4.40;;
24163;SDS011;12319;49.204;8.116;2023-07-31T05:39:44;5.38;;;4.30;;
24163;SDS011;12319;49.204;8.116;2023-07-31T05:42:09;6.57;;;4.40;;
24163;SDS011;12319;49.204;8.116;2023-07-31T05:44:35;5.43;;;4.27;;
24163;SDS011;12319;49.204;8.116;2023-07-31T05:47:00;5.40;;;4.23;;
24163;SDS011;12319;49.204;8.116;2023-07-31T05:49:26;5.65;;;4.50;;
24163;SDS011;12319;49.204;8.116;2023-07-31T05:51:52;5.73;;;4.53;;
24163;SDS011;12319;49.204;8.116;2023-07-31T05:54:17;6.27;;;4.60;;
24163;SDS011;12319;49.204;8.116;2023-07-31T05:56:43;6.05;;;4.15;;
24163;SDS011;12319;49.204;8.116;2023-07-31T05:59:08;5.93;;;4.47;;
24163;SDS011;12319;49.204;8.116;2023-07-31T06:01:37;5.75;;;4.50;;
24163;SDS011;12319;49.204;8.116;2023-07-31T06:04:02;6.90;;;4.60;;
24163;SDS011;12319;49.204;8.116;2023-07-31T06:06:28;5.90;;;4.60;;
24163;SDS011;12319;49.204;8.116;2023-07-31T06:08:54;7.00;;;4.33;;
24163;SDS011;12319;49.204;8.116;2023-07-31T06:11:22;6.97;;;4.87;;
24163;SDS011;12319;49.204;8.116;2023-07-31T06:13:48;6.32;;;4.63;;
24163;SDS011;12319;49.204;8.116;2023-07-31T06:16:15;7.68;;;4.60;;
24163;SDS011;12319;49.204;8.116;2023-07-31T06:18:41;6.05;;;4.20;;
24163;SDS011;12319;49.204;8.116;2023-07-31T06:21:06;5.88;;;4.22;;
24163;SDS011;12319;49.204;8.116;2023-07-31T06:23:32;5.85;;;4.50;;
24163;SDS011;12319;49.204;8.116;2023-07-31T06:25:58;7.17;;;4.50;;
24163;SDS011;12319;49.204;8.116;2023-07-31T06:28:27;5.72;;;4.40;;
24163;SDS011;12319;49.204;8.116;2023-07-31T06:30:54;5.55;;;4.25;;
24163;SDS011;12319;49.204;8.116;2023-07-31T06:33:19;7.07;;;4.18;;
24163;SDS011;12319;49.204;8.116;2023-07-31T06:35:45;5.90;;;4.60;;
24163;SDS011;12319;49.204;8.116;2023-07-31T06:38:11;6.20;;;4.40;;
24163;SDS011;12319;49.204;8.116;2023-07-31T06:40:36;5.55;;;4.30;;
24163;SDS011;12319;49.204;8.116;2023-07-31T06:43:02;7.10;;;4.57;;
24163;SDS011;12319;49.204;8.116;2023-07-31T06:45:33;6.00;;;4.10;;
24163;SDS011;12319;49.204;8.116;2023-07-31T06:47:59;5.70;;;4.55;;
24163;SDS011;12319;49.204;8.116;2023-07-31T06:50:26;6.72;;;4.40;;
24163;SDS011;12319;49.204;8.116;2023-07-31T06:52:56;6.03;;;4.40;;
24163;SDS011;12319;49.204;8.116;2023-07-31T06:55:22;6.60;;;4.43;;
24163;SDS011;12319;49.204;8.116;2023-07-31T06:57:48;6.93;;;5.40;;
24163;SDS011;12319;49.204;8.116;2023-07-31T07:00:15;5.80;;;4.43;;
24163;SDS011;12319;49.204;8.116;2023-07-31T07:02:41;8.45;;;4.93;;
24163;SDS011;12319;49.204;8.116;2023-07-31T07:05:07;6.20;;;4.87;;
24163;SDS011;12319;49.204;8.116;2023-07-31T07:07:33;6.95;;;5.07;;
24163;SDS011;12319;49.204;8.116;2023-07-31T07:09:59;7.57;;;4.78;;
24163;SDS011;12319;49.204;8.116;2023-07-31T07:12:26;8.27;;;4.80;;
24163;SDS011;12319;49.204;8.116;2023-07-31T07:14:54;8.10;;;5.03;;
24163;SDS011;12319;49.204;8.116;2023-07-31T07:17:19;6.97;;;5.20;;
24163;SDS011;12319;49.204;8.116;2023-07-31T07:19:45;8.63;;;4.95;;
24163;SDS011;12319;49.204;8.116;2023-07-31T07:22:12;6.93;;;4.60;;
24163;SDS011;12319;49.204;8.116;2023-07-31T07:24:38;6.07;;;4.50;;
24163;SDS011;12319;49.204;8.116;2023-07-31T07:27:03;6.43;;;4.33;;
24163;SDS011;12319;49.204;8.116;2023-07-31T07:29:29;5.70;;;4.60;;
24163;SDS011;12319;49.204;8.116;2023-07-31T07:31:55;7.63;;;4.50;;
24163;SDS011;12319;49.204;8.116;2023-07-31T07:34:22;6.55;;;4.40;;
24163;SDS011;12319;49.204;8.116;2023-07-31T07:36:50;6.43;;;4.60;;
24163;SDS011;12319;49.204;8.116;2023-07-31T07:39:16;6.47;;;4.80;;
24163;SDS011;12319;49.204;8.116;2023-07-31T07:41:41;7.43;;;4.80;;
24163;SDS011;12319;49.204;8.116;2023-07-31T07:44:07;5.80;;;4.90;;
24163;SDS011;12319;49.204;8.116;2023-07-31T07:46:33;6.93;;;4.90;;
24163;SDS011;12319;49.204;8.116;2023-07-31T07:48:58;7.53;;;4.87;;
24163;SDS011;12319;49.204;8.116;2023-07-31T07:51:24;5.47;;;4.22;;
24163;SDS011;12319;49.204;8.116;2023-07-31T07:53:49;6.13;;;4.70;;
24163;SDS011;12319;49.204;8.116;2023-07-31T07:56:15;6.63;;;4.30;;
24163;SDS011;12319;49.204;8.116;2023-07-31T07:58:40;6.80;;;4.70;;
24163;SDS011;12319;49.204;8.116;2023-07-31T08:01:06;7.50;;;5.17;;
24163;SDS011;12319;49.204;8.116;2023-07-31T08:03:31;7.53;;;5.33;;
24163;SDS011;12319;49.204;8.116;2023-07-31T08:06:00;7.88;;;5.05;;
24163;SDS011;12319;49.204;8.116;2023-07-31T08:08:28;8.73;;;5.10;;
24163;SDS011;12319;49.204;8.116;2023-07-31T08:10:53;6.40;;;4.90;;
24163;SDS011;12319;49.204;8.116;2023-07-31T08:13:19;5.73;;;4.60;;
24163;SDS011;12319;49.204;8.116;2023-07-31T08:15:45;6.65;;;4.70;;
24163;SDS011;12319;49.204;8.116;2023-07-31T08:18:12;5.90;;;4.77;;
24163;SDS011;12319;49.204;8.116;2023-07-31T08:20:37;6.45;;;4.80;;
24163;SDS011;12319;49.204;8.116;2023-07-31T08:23:03;6.22;;;4.38;;
24163;SDS011;12319;49.204;8.116;2023-07-31T08:25:29;6.45;;;4.75;;
24163;SDS011;12319;49.204;8.116;2023-07-31T08:27:55;5.97;;;4.22;;
24163;SDS011;12319;49.204;8.116;2023-07-31T08:30:20;7.53;;;5.13;;
24163;SDS011;12319;49.204;8.116;2023-07-31T08:32:46;6.68;;;4.70;;
24163;SDS011;12319;49.204;8.116;2023-07-31T08:35:12;6.60;;;4.80;;
24163;SDS011;12319;49.204;8.116;2023-07-31T08:37:38;5.80;;;4.60;;
24163;SDS011;12319;49.204;8.116;2023-07-31T08:40:04;6.57;;;4.72;;
24163;SDS011;12319;49.204;8.116;2023-07-31T08:42:30;7.40;;;4.70;;
24163;SDS011;12319;49.204;8.116;2023-07-31T08:44:56;7.03;;;4.30;;
24163;SDS011;12319;49.204;8.116;2023-07-31T08:47:24;6.60;;;4.35;;
24163;SDS011;12319;49.204;8.116;2023-07-31T08:49:50;6.13;;;4.22;;
24163;SDS011;12319;49.204;8.116;2023-07-31T08:52:17;5.93;;;4.28;;
24163;SDS011;12319;49.204;8.116;2023-07-31T08:54:43;6.70;;;4.68;;
24163;SDS011;12319;49.204;8.116;2023-07-31T08:57:08;7.50;;;4.53;;
24163;SDS011;12319;49.204;8.116;2023-07-31T08:59:36;6.80;;;4.72;;
24163;SDS011;12319;49.204;8.116;2023-07-31T09:02:04;7.50;;;4.57;;
24163;SDS011;12319;49.204;8.116;2023-07-31T09:04:32;6.40;;;4.50;;
24163;SDS011;12319;49.204;8.116;2023-07-31T09:06:59;7.55;;;4.93;;
24163;SDS011;12319;49.204;8.116;2023-07-31T09:09:28;6.68;;;5.00;;
24163;SDS011;12319;49.204;8.116;2023-07-31T09:11:54;6.30;;;4.67;;
24163;SDS011;12319;49.204;8.116;2023-07-31T09:14:20;7.72;;;4.97;;
24163;SDS011;12319;49.204;8.116;2023-07-31T09:16:55;7.47;;;4.78;;
24163;SDS011;12319;49.204;8.116;2023-07-31T09:21:53;7.03;;;5.28;;
24163;SDS011;12319;49.204;8.116;2023-07-31T09:24:28;8.07;;;4.73;;
24163;SDS011;12319;49.204;8.116;2023-07-31T09:26:55;8.75;;;5.22;;
24163;SDS011;12319;49.204;8.116;2023-07-31T09:29:22;6.55;;;4.80;;
24163;SDS011;12319;49.204;8.116;2023-07-31T09:31:47;6.33;;;4.90;;
24163;SDS011;12319;49.204;8.116;2023-07-31T09:34:13;7.43;;;4.75;;
24163;SDS011;12319;49.204;8.116;2023-07-31T09:36:39;7.07;;;4.90;;
24163;SDS011;12319;49.204;8.116;2023-07-31T09:39:10;7.97;;;5.03;;
24163;SDS011;12319;49.204;8.116;2023-07-31T09:41:37;7.72;;;4.80;;
24163;SDS011;12319;49.204;8.116;2023-07-31T09:44:08;6.45;;;5.10;;
24163;SDS011;12319;49.204;8.116;2023-07-31T09:46:36;6.80;;;5.10;;
24163;SDS011;12319;49.204;8.116;2023-07-31T09:49:12;7.38;;;5.32;;
24163;SDS011;12319;49.204;8.116;2023-07-31T09:51:40;6.88;;;4.65;;
24163;SDS011;12319;49.204;8.116;2023-07-31T09:54:11;7.28;;;4.78;;
24163;SDS011;12319;49.204;8.116;2023-07-31T09:56:41;8.05;;;4.90;;
24163;SDS011;12319;49.204;8.116;2023-07-31T09:59:12;5.95;;;4.60;;
24163;SDS011;12319;49.204;8.116;2023-07-31T10:01:42;9.50;;;5.47;;
24163;SDS011;12319;49.204;8.116;2023-07-31T10:04:09;8.27;;;5.20;;
24163;SDS011;12319;49.204;8.116;2023-07-31T10:06:36;6.30;;;4.82;;
24163;SDS011;12319;49.204;8.116;2023-07-31T10:09:05;8.10;;;4.55;;
24163;SDS011;12319;49.204;8.116;2023-07-31T10:11:37;7.35;;;4.90;;
24163;SDS011;12319;49.204;8.116;2023-07-31T10:14:07;7.30;;;4.70;;
24163;SDS011;12319;49.204;8.116;2023-07-31T10:16:33;6.47;;;4.93;;
24163;SDS011;12319;49.204;8.116;2023-07-31T10:19:00;6.65;;;5.20;;
24163;SDS011;12319;49.204;8.116;2023-07-31T10:21:26;6.72;;;5.25;;
24163;SDS011;12319;49.204;8.116;2023-07-31T10:23:53;6.43;;;4.80;;
24163;SDS011;12319;49.204;8.116;2023-07-31T10:26:20;6.05;;;4.60;;
24163;SDS011;12319;49.204;8.116;2023-07-31T10:28:48;8.32;;;5.05;;
24163;SDS011;12319;49.204;8.116;2023-07-31T10:31:15;10.85;;;5.10;;
24163;SDS011;12319;49.204;8.116;2023-07-31T10:33:41;7.45;;;5.32;;
24163;SDS011;12319;49.204;8.116;2023-07-31T10:36:19;6.57;;;5.03;;
24163;SDS011;12319;49.204;8.116;2023-07-31T10:38:46;10.40;;;5.93;;
24163;SDS011;12319;49.204;8.116;2023-07-31T10:41:14;7.10;;;5.25;;
24163;SDS011;12319;49.204;8.116;2023-07-31T10:43:39;7.93;;;5.15;;
24163;SDS011;12319;49.204;8.116;2023-07-31T10:46:08;5.90;;;5.00;;
24163;SDS011;12319;49.204;8.116;2023-07-31T10:48:38;7.25;;;5.38;;
24163;SDS011;12319;49.204;8.116;2023-07-31T10:51:10;6.63;;;4.80;;
24163;SDS011;12319;49.204;8.116;2023-07-31T10:53:40;6.65;;;5.28;;
24163;SDS011;12319;49.204;8.116;2023-07-31T10:56:09;6.33;;;4.80;;
24163;SDS011;12319;49.204;8.116;2023-07-31T10:58:43;6.47;;;5.10;;
24163;SDS011;12319;49.204;8.116;2023-07-31T11:01:11;6.28;;;5.00;;
24163;SDS011;12319;49.204;8.116;2023-07-31T11:03:46;6.27;;;4.93;;
24163;SDS011;12319;49.204;8.116;2023-07-31T11:06:14;6.88;;;4.85;;
24163;SDS011;12319;49.204;8.116;2023-07-31T11:08:41;6.05;;;4.97;;
24163;SDS011;12319;49.204;8.116;2023-07-31T11:11:09;7.70;;;5.03;;
24163;SDS011;12319;49.204;8.116;2023-07-31T11:13:40;7.55;;;5.20;;
24163;SDS011;12319;49.204;8.116;2023-07-31T11:16:17;7.47;;;5.18;;
24163;SDS011;12319;49.204;8.116;2023-07-31T11:18:44;6.55;;;4.97;;
24163;SDS011;12319;49.204;8.116;2023-07-31T11:21:14;8.95;;;5.10;;
24163;SDS011;12319;49.204;8.116;2023-07-31T11:23:41;8.05;;;5.40;;
24163;SDS011;12319;49.204;8.116;2023-07-31T11:26:11;7.82;;;5.68;;
24163;SDS011;12319;49.204;8.116;2023-07-31T11:28:37;6.28;;;5.03;;
24163;SDS011;12319;49.204;8.116;2023-07-31T11:31:03;5.90;;;4.93;;
24163;SDS011;12319;49.204;8.116;2023-07-31T11:33:29;6.43;;;5.30;;
24163;SDS011;12319;49.204;8.116;2023-07-31T11:35:56;8.20;;;4.90;;
24163;SDS011;12319;49.204;8.116;2023-07-31T11:38:22;6.88;;;5.05;;
24163;SDS011;12319;49.204;8.116;2023-07-31T11:40:56;6.22;;;4.82;;
24163;SDS011;12319;49.204;8.116;2023-07-31T11:43:23;8.68;;;5.00;;
24163;SDS011;12319;49.204;8.116;2023-07-31T11:45:56;6.43;;;5.10;;
24163;SDS011;12319;49.204;8.116;2023-07-31T11:48:41;7.75;;;5.10;;
24163;SDS011;12319;49.204;8.116;2023-07-31T11:51:08;6.40;;;5.20;;
24163;SDS011;12319;49.204;8.116;2023-07-31T11:53:43;6.75;;;4.97;;
24163;SDS011;12319;49.204;8.116;2023-07-31T11:56:16;6.30;;;4.70;;
24163;SDS011;12319;49.204;8.116;2023-07-31T11:58:45;5.75;;;4.45;;
24163;SDS011;12319;49.204;8.116;2023-07-31T12:01:13;6.50;;;4.90;;
24163;SDS011;12319;49.204;8.116;2023-07-31T12:03:41;6.53;;;4.88;;
24163;SDS011;12319;49.204;8.116;2023-07-31T12:06:07;9.13;;;4.93;;
24163;SDS011;12319;49.204;8.116;2023-07-31T12:08:33;6.35;;;4.80;;
24163;SDS011;12319;49.204;8.116;2023-07-31T12:11:05;6.83;;;4.80;;
24163;SDS011;12319;49.204;8.116;2023-07-31T12:13:34;6.10;;;4.60;;
24163;SDS011;12319;49.204;8.116;2023-07-31T12:16:01;7.20;;;4.82;;
24163;SDS011;12319;49.204;8.116;2023-07-31T12:18:29;5.57;;;4.30;;
24163;SDS011;12319;49.204;8.116;2023-07-31T12:20:59;6.20;;;4.70;;
24163;SDS011;12319;49.204;8.116;2023-07-31T12:23:26;7.73;;;4.97;;
24163;SDS011;12319;49.204;8.116;2023-07-31T12:26:33;7.45;;;4.70;;
24163;SDS011;12319;49.204;8.116;2023-07-31T12:28:46;6.43;;;4.97;;
24163;SDS011;12319;49.204;8.116;2023-07-31T12:31:14;7.75;;;4.50;;
24163;SDS011;12319;49.204;8.116;2023-07-31T12:33:42;6.25;;;4.75;;
24163;SDS011;12319;49.204;8.116;2023-07-31T12:36:09;5.40;;;4.07;;
24163;SDS011;12319;49.204;8.116;2023-07-31T12:38:35;7.07;;;4.88;;
24163;SDS011;12319;49.204;8.116;2023-07-31T12:41:00;6.22;;;5.10;;
24163;SDS011;12319;49.204;8.116;2023-07-31T12:43:26;6.77;;;5.23;;
24163;SDS011;12319;49.204;8.116;2023-07-31T12:45:53;6.27;;;4.50;;
24163;SDS011;12319;49.204;8.116;2023-07-31T12:48:20;6.15;;;4.63;;
24163;SDS011;12319;49.204;8.116;2023-07-31T12:50:45;7.05;;;4.90;;
24163;SDS011;12319;49.204;8.116;2023-07-31T12:53:11;5.73;;;4.33;;
24163;SDS011;12319;49.204;8.116;2023-07-31T12:55:36;5.67;;;4.50;;
24163;SDS011;12319;49.204;8.116;2023-07-31T12:58:02;5.88;;;4.40;;
24163;SDS011;12319;49.204;8.116;2023-07-31T13:00:28;6.20;;;4.45;;
24163;SDS011;12319;49.204;8.116;2023-07-31T13:02:54;7.47;;;4.43;;
24163;SDS011;12319;49.204;8.116;2023-07-31T13:05:19;7.30;;;4.97;;
24163;SDS011;12319;49.204;8.116;2023-07-31T13:07:46;7.47;;;5.32;;
24163;SDS011;12319;49.204;8.116;2023-07-31T13:10:13;6.80;;;5.00;;
24163;SDS011;12319;49.204;8.116;2023-07-31T13:12:38;6.60;;;4.88;;
24163;SDS011;12319;49.204;8.116;2023-07-31T13:15:04;7.03;;;5.07;;
24163;SDS011;12319;49.204;8.116;2023-07-31T13:17:31;7.53;;;5.07;;
24163;SDS011;12319;49.204;8.116;2023-07-31T13:19:57;6.65;;;4.90;;
24163;SDS011;12319;49.204;8.116;2023-07-31T13:22:23;7.07;;;4.53;;
24163;SDS011;12319;49.204;8.116;2023-07-31T13:24:49;8.57;;;5.38;;
24163;SDS011;12319;49.204;8.116;2023-07-31T13:27:14;6.00;;;4.90;;
24163;SDS011;12319;49.204;8.116;2023-07-31T13:29:47;6.68;;;4.70;;
24163;SDS011;12319;49.204;8.116;2023-07-31T13:32:13;5.82;;;4.82;;
24163;SDS011;12319;49.204;8.116;2023-07-31T13:34:40;6.10;;;5.28;;
24163;SDS011;12319;49.204;8.116;2023-07-31T13:37:06;6.63;;;4.87;;
24163;SDS011;12319;49.204;8.116;2023-07-31T13:39:31;7.05;;;4.80;;
24163;SDS011;12319;49.204;8.116;2023-07-31T13:41:58;5.63;;;4.63;;
24163;SDS011;12319;49.204;8.116;2023-07-31T13:44:24;5.85;;;4.82;;
24163;SDS011;12319;49.204;8.116;2023-07-31T13:46:49;7.17;;;4.87;;
24163;SDS011;12319;49.204;8.116;2023-07-31T13:49:15;6.20;;;5.10;;
24163;SDS011;12319;49.204;8.116;2023-07-31T13:51:40;6.43;;;4.95;;
24163;SDS011;12319;49.204;8.116;2023-07-31T13:54:06;6.40;;;5.07;;
24163;SDS011;12319;49.204;8.116;2023-07-31T13:56:32;6.18;;;5.00;;
24163;SDS011;12319;49.204;8.116;2023-07-31T13:58:57;7.30;;;4.80;;
24163;SDS011;12319;49.204;8.116;2023-07-31T14:01:23;6.82;;;5.00;;
24163;SDS011;12319;49.204;8.116;2023-07-31T14:03:49;5.90;;;4.70;;
24163;SDS011;12319;49.204;8.116;2023-07-31T14:06:14;5.80;;;4.85;;
24163;SDS011;12319;49.204;8.116;2023-07-31T14:08:40;5.80;;;5.00;;
24163;SDS011;12319;49.204;8.116;2023-07-31T14:11:05;7.47;;;4.90;;
24163;SDS011;12319;49.204;8.116;2023-07-31T14:13:31;7.63;;;5.07;;
24163;SDS011;12319;49.204;8.116;2023-07-31T14:15:57;6.43;;;4.50;;
24163;SDS011;12319;49.204;8.116;2023-07-31T14:18:22;5.83;;;4.40;;
24163;SDS011;12319;49.204;8.116;2023-07-31T14:20:48;6.67;;;4.90;;
24163;SDS011;12319;49.204;8.116;2023-07-31T14:23:13;6.00;;;4.68;;
24163;SDS011;12319;49.204;8.116;2023-07-31T14:25:40;5.90;;;4.47;;
24163;SDS011;12319;49.204;8.116;2023-07-31T14:28:06;5.93;;;4.10;;
24163;SDS011;12319;49.204;8.116;2023-07-31T14:30:31;5.70;;;4.50;;
24163;SDS011;12319;49.204;8.116;2023-07-31T14:32:57;8.15;;;4.50;;
24163;SDS011;12319;49.204;8.116;2023-07-31T14:35:22;5.87;;;4.50;;
24163;SDS011;12319;49.204;8.116;2023-07-31T14:37:48;6.60;;;4.70;;
24163;SDS011;12319;49.204;8.116;2023-07-31T14:40:13;7.43;;;4.53;;
24163;SDS011;12319;49.204;8.116;2023-07-31T14:42:39;7.00;;;4.77;;
24163;SDS011;12319;49.204;8.116;2023-07-31T14:45:05;6.43;;;4.97;;
24163;SDS011;12319;49.204;8.116;2023-07-31T14:47:31;6.70;;;5.03;;
24163;SDS011;12319;49.204;8.116;2023-07-31T14:49:57;6.80;;;5.33;;